Airfield :







YOU CAN JOIN US ON...

 
LOGIN :

Register | Disclaimer

   EN    FR    IT 

 









Legend :    VFR   Marginal VFR   IFR   Intensive IFR   Very Intensive IFR
Visi :
Ceiling :
>= 8 km
>= 3000ft
5 to 8 km
1000 to 3000 ft
1500m to 5 km
500 to 1000 ft
800 to 1500m
200 to 500 ft
< 800m
< 200 ft
Symbols :   Thunderstorms  Fog  Heavy snow  Heavy precipitations  Wind > 20 kt






- Airport Elevation : 11 ft


KGHG - Marshfield Municipal George Harlow Field

CURRENT METAR :
  • 221315Z AUTO 04008G15KT 350V070 10SM BKN033 OVC038 M03/M09 A3040 RMK AO2

EXPIRED METARs :
  • 221255Z AUTO 04008KT 010V070 10SM OVC038 M03/M09 A3040 RMK AO2
  • 221235Z AUTO 04008G16KT 360V060 10SM FEW021 SCT030 OVC040 M03/M09 A3039 RMK AO2
  • 221215Z AUTO 05010G16KT 3SM -SN FEW021 BKN029 OVC034 M03/M07 A3040 RMK AO2
  • 221155Z AUTO 06013KT 10SM -UP OVC033 M03/M08 A3042 RMK AO2
  • 221135Z AUTO 05008G15KT 10SM BKN030 OVC035 M03/M09 A3043 RMK AO2
  • 221115Z AUTO 05012G18KT 10SM OVC030 M03/M08 A3042 RMK AO2
  • 221055Z AUTO 05011G18KT 10SM -UP OVC030 M03/M09 A3040 RMK AO2
  • 221035Z AUTO 05008G14KT 10SM OVC029 M03/M08 A3040 RMK AO2

TAF N/A
KZBW FIR / North America



MET'MAP, your aeronautical weather chart ! - Copyright ORBIFLY December 2007 - Disclaimer

ORBIFLY MET'MAP TEAM :

Programming & Development : Alexandra Zaïnal
Concept & original design : Baudouin d'Aumeries
Assistance for programming : Marc-Olivier Méhu
Technical & hardware support : Manuel Goepfert

Contact : metmap@orbifly.com




SOURCES & CREDITS :

   NOAA